Time;durP1;ratioP1;P1;durP2;ratioP2;P2;SDS_P1;SDS_P2;PMS_P1;PMS_P2;Temp;Humidity;BMP_temperature;BMP_pressure;BME280_temperature;BME280_humidity;BME280_pressure;Samples;Min_cycle;Max_cycle;Signal;HPM_P1;HPM_P2
2022/12/22 03:28:10;;;;;;;17.07;15.17;;;6.60;1.00;;;;;;6208423;28;20494;-56
2022/12/22 03:31:13;;;;;;;17.33;15.57;;;6.60;1.00;;;;;;6218813;28;20241;-54
2022/12/22 03:34:18;;;;;;;17.57;15.80;;;6.60;1.00;;;;;;6233712;28;20227;-55
2022/12/22 03:37:21;;;;;;;17.60;15.83;;;6.60;1.00;;;;;;6232842;28;20242;-56
2022/12/22 03:40:24;;;;;;;17.63;15.83;;;6.60;1.00;;;;;;6207274;28;20235;-56
2022/12/22 03:46:47;;;;;;;15.57;14.07;;;6.70;1.00;;;;;;6195508;28;20239;-56
2022/12/22 03:49:51;;;;;;;16.67;15.17;;;6.60;1.00;;;;;;6208024;28;20730;-55
2022/12/22 03:52:54;;;;;;;16.27;14.83;;;6.60;1.00;;;;;;6208489;28;20277;-55
2022/12/22 03:55:57;;;;;;;16.47;14.83;;;6.70;1.00;;;;;;6208715;28;20246;-55
2022/12/22 03:59:09;;;;;;;17.40;15.80;;;6.90;1.00;;;;;;6209114;28;20246;-55
2022/12/22 04:02:12;;;;;;;17.87;15.20;;;6.70;1.00;;;;;;6229524;28;20706;-56
2022/12/22 04:05:17;;;;;;;17.77;16.07;;;6.80;1.00;;;;;;6249930;28;20246;-55
2022/12/22 04:08:20;;;;;;;17.70;16.07;;;6.70;1.00;;;;;;6256652;28;20242;-54
2022/12/22 04:14:43;;;;;;;17.67;15.97;;;6.70;1.00;;;;;;6240996;28;20235;-55
2022/12/22 04:17:46;;;;;;;19.40;17.33;;;6.80;1.00;;;;;;6233365;28;20378;-56
2022/12/22 04:20:51;;;;;;;18.27;16.53;;;6.80;1.00;;;;;;6245969;28;20514;-56
2022/12/22 04:23:54;;;;;;;16.47;14.87;;;6.80;1.00;;;;;;6247515;28;20322;-55
2022/12/22 04:26:57;;;;;;;18.70;16.80;;;6.80;1.00;;;;;;6231065;28;20245;-56
2022/12/22 04:30:00;;;;;;;17.97;16.20;;;6.80;1.00;;;;;;6231867;28;20321;-55
2022/12/22 04:33:03;;;;;;;18.43;16.63;;;6.90;1.00;;;;;;6232269;28;20311;-56
2022/12/22 04:36:08;;;;;;;18.20;16.30;;;6.90;1.00;;;;;;6233913;28;20238;-55
2022/12/22 04:39:11;;;;;;;17.60;15.93;;;7.00;1.00;;;;;;6231921;28;20249;-55
2022/12/22 04:42:14;;;;;;;17.00;15.37;;;6.90;1.00;;;;;;6259515;28;20606;-55
2022/12/22 04:45:17;;;;;;;18.07;16.23;;;7.20;1.00;;;;;;6255415;28;20246;-56
2022/12/22 04:48:21;;;;;;;16.03;14.43;;;7.20;1.00;;;;;;6254163;28;20254;-55
2022/12/22 04:51:25;;;;;;;16.10;14.50;;;6.90;1.00;;;;;;6233939;28;20740;-54
2022/12/22 04:54:28;;;;;;;20.10;18.10;;;6.80;1.00;;;;;;6266665;28;20233;-56
2022/12/22 04:57:31;;;;;;;19.40;17.40;;;6.90;1.00;;;;;;6257055;28;20936;-55
2022/12/22 05:00:42;;;;;;;19.20;17.20;;;6.90;1.00;;;;;;6257097;28;20238;-55
2022/12/22 05:03:45;;;;;;;18.17;16.30;;;7.00;1.00;;;;;;6254332;28;20242;-54
2022/12/22 05:06:49;;;;;;;17.43;15.60;;;6.90;1.00;;;;;;6257194;28;20238;-55
2022/12/22 05:09:52;;;;;;;19.20;17.43;;;7.00;1.00;;;;;;6255479;28;20241;-54
2022/12/22 05:12:55;;;;;;;17.30;15.70;;;6.90;1.00;;;;;;6259722;28;20248;-55
2022/12/22 05:16:04;;;;;;;20.43;18.33;;;6.80;1.00;;;;;;6253425;28;20237;-55
2022/12/22 05:19:07;;;;;;;20.13;18.00;;;6.80;1.00;;;;;;6263167;28;20772;-54
2022/12/22 05:22:12;;;;;;;20.30;18.17;;;6.80;1.00;;;;;;6257314;28;20238;-54
2022/12/22 05:25:16;;;;;;;20.97;18.77;;;6.90;1.00;;;;;;6264366;28;20801;-58
2022/12/22 05:28:19;;;;;;;19.50;17.60;;;6.80;1.00;;;;;;6262059;28;20784;-58
2022/12/22 05:31:23;;;;;;;20.90;18.70;;;6.80;1.00;;;;;;6259537;28;20626;-55
2022/12/22 05:34:27;;;;;;;21.40;19.10;;;6.80;1.00;;;;;;6262247;28;20242;-55
2022/12/22 05:37:31;;;;;;;24.13;19.00;;;6.80;1.00;;;;;;6262327;28;20244;-56
2022/12/22 05:40:34;;;;;;;24.77;18.87;;;6.80;1.00;;;;;;6261087;28;20393;-55
2022/12/22 05:43:38;;;;;;;22.97;20.47;;;6.80;1.00;;;;;;6263745;28;20484;-56
2022/12/22 05:46:41;;;;;;;21.70;19.40;;;6.90;1.00;;;;;;6263506;28;20642;-55
2022/12/22 05:49:44;;;;;;;22.77;20.33;;;6.80;1.00;;;;;;6260255;28;20246;-54
2022/12/22 05:52:48;;;;;;;27.50;22.20;;;6.80;1.00;;;;;;6263078;28;20241;-56
2022/12/22 05:55:52;;;;;;;27.07;22.57;;;6.90;1.00;;;;;;6263195;28;20233;-55
2022/12/22 05:58:55;;;;;;;28.67;22.50;;;7.00;1.00;;;;;;6257334;28;20245;-55
2022/12/22 06:01:58;;;;;;;26.80;22.43;;;6.90;1.00;;;;;;6262939;28;20233;-55
2022/12/22 06:05:01;;;;;;;25.80;21.70;;;6.90;1.00;;;;;;6256555;28;20233;-55
2022/12/22 06:08:06;;;;;;;27.93;24.07;;;6.90;1.00;;;;;;6261255;28;20253;-55
2022/12/22 06:11:09;;;;;;;33.33;24.67;;;6.90;1.00;;;;;;6257561;28;20230;-52
2022/12/22 06:14:12;;;;;;;29.83;23.53;;;6.90;1.00;;;;;;6256230;28;20582;-54
2022/12/22 06:17:15;;;;;;;31.67;25.70;;;6.90;1.00;;;;;;6258488;28;20242;-55
2022/12/22 06:20:19;;;;;;;31.37;25.10;;;7.00;1.00;;;;;;6257790;28;20238;-55
2022/12/22 06:23:23;;;;;;;33.90;27.20;;;7.00;1.00;;;;;;6254781;28;20238;-55
2022/12/22 06:26:26;;;;;;;29.53;24.57;;;7.00;1.00;;;;;;6255839;28;20617;-55
2022/12/22 06:29:29;;;;;;;32.33;26.20;;;6.90;1.00;;;;;;6257247;28;20242;-54
2022/12/22 06:32:35;;;;;;;29.80;24.63;;;7.00;1.00;;;;;;6257148;28;20253;-55
2022/12/22 06:35:38;;;;;;;32.03;25.13;;;7.00;1.00;;;;;;6250658;28;20249;-55
2022/12/22 06:38:42;;;;;;;29.70;23.20;;;7.00;1.00;;;;;;6257100;28;20257;-55
2022/12/22 06:45:06;;;;;;;33.53;25.60;;;7.00;1.00;;;;;;6248629;28;20623;-55
2022/12/22 06:48:10;;;;;;;32.03;24.73;;;7.00;1.00;;;;;;6257729;28;20501;-56
2022/12/22 06:51:13;;;;;;;31.20;23.60;;;7.00;1.00;;;;;;6254621;28;20237;-56
2022/12/22 06:54:18;;;;;;;32.80;24.73;;;7.00;1.00;;;;;;6249157;28;20242;-54
2022/12/22 06:57:28;;;;;;;28.63;25.20;;;7.00;1.00;;;;;;6232583;28;20711;-55
2022/12/22 07:00:31;;;;;;;29.13;24.23;;;7.10;1.00;;;;;;6232998;28;20317;-56
2022/12/22 07:03:34;;;;;;;28.47;23.30;;;7.00;1.00;;;;;;6232528;28;20752;-54
2022/12/22 07:06:37;;;;;;;30.57;23.87;;;7.00;1.00;;;;;;6228852;28;20250;-55
2022/12/22 07:09:42;;;;;;;31.10;24.53;;;7.00;1.00;;;;;;6253503;28;20245;-54
2022/12/22 07:12:45;;;;;;;32.50;25.37;;;7.00;1.00;;;;;;6251882;28;20652;-56
2022/12/22 07:15:49;;;;;;;27.57;23.53;;;7.10;1.00;;;;;;6260252;28;20265;-54
2022/12/22 07:19:02;;;;;;;38.63;24.07;;;7.10;1.00;;;;;;6253626;28;20700;-55
2022/12/22 07:22:05;;;;;;;30.10;23.43;;;7.10;1.00;;;;;;6256889;28;20762;-55
2022/12/22 07:25:10;;;;;;;35.50;24.63;;;7.20;1.00;;;;;;6234430;28;20729;-53
2022/12/22 07:28:13;;;;;;;32.17;24.03;;;7.20;1.00;;;;;;6234482;28;20250;-54
2022/12/22 07:31:25;;;;;;;32.13;24.90;;;7.20;1.00;;;;;;6219352;28;20266;-54
2022/12/22 07:34:28;;;;;;;26.83;22.73;;;7.20;1.00;;;;;;6217757;28;20292;-55
2022/12/22 07:37:31;;;;;;;31.93;24.83;;;7.20;1.00;;;;;;6232320;28;20246;-54
2022/12/22 07:40:36;;;;;;;31.97;23.93;;;7.20;1.00;;;;;;6230046;28;20942;-55
2022/12/22 07:43:44;;;;;;;29.40;23.80;;;7.20;1.00;;;;;;6229673;28;20343;-55
2022/12/22 07:46:47;;;;;;;33.47;24.37;;;7.20;1.00;;;;;;6256325;28;20638;-55
2022/12/22 07:53:11;;;;;;;29.07;22.90;;;7.30;1.00;;;;;;6254984;28;20328;-53
2022/12/22 07:56:15;;;;;;;29.57;22.87;;;7.40;1.00;;;;;;6257131;28;20638;-55
2022/12/22 07:59:19;;;;;;;26.37;21.70;;;7.40;1.00;;;;;;6248109;28;20887;-54
2022/12/22 08:02:22;;;;;;;29.20;23.43;;;7.40;1.00;;;;;;6255619;28;20630;-56
2022/12/22 08:05:25;;;;;;;29.27;22.67;;;7.30;1.00;;;;;;6254445;28;20241;-54
2022/12/22 08:08:28;;;;;;;27.97;22.63;;;7.30;1.00;;;;;;6254573;28;20246;-55
2022/12/22 08:11:33;;;;;;;26.20;21.97;;;7.40;1.00;;;;;;6248845;28;21301;-56
2022/12/22 08:14:36;;;;;;;29.43;22.43;;;7.40;1.00;;;;;;6255588;28;20662;-55
2022/12/22 08:17:39;;;;;;;27.03;21.60;;;7.40;1.00;;;;;;6253634;28;20238;-54
2022/12/22 08:20:49;;;;;;;27.17;22.77;;;7.40;1.00;;;;;;6248842;28;20234;-56
2022/12/22 08:23:52;;;;;;;30.03;22.00;;;7.40;1.00;;;;;;6256302;28;20226;-54
2022/12/22 08:27:01;;;;;;;26.73;21.47;;;7.40;1.00;;;;;;6255212;28;20237;-54
2022/12/22 08:30:06;;;;;;;28.33;22.07;;;7.70;1.00;;;;;;6254457;28;20280;-55
2022/12/22 08:33:09;;;;;;;29.30;21.90;;;7.40;1.00;;;;;;6254342;28;20488;-54
2022/12/22 08:36:12;;;;;;;25.70;22.60;;;7.50;1.00;;;;;;6254246;28;20746;-55
2022/12/22 08:39:16;;;;;;;26.57;21.30;;;7.50;1.00;;;;;;6248298;28;20230;-57
2022/12/22 08:42:22;;;;;;;25.00;22.00;;;7.50;1.00;;;;;;6256463;28;20238;-54
2022/12/22 08:45:25;;;;;;;25.33;20.80;;;7.50;1.00;;;;;;6251965;28;20245;-55
2022/12/22 08:48:28;;;;;;;25.87;21.97;;;7.60;1.00;;;;;;6252829;28;20306;-55
2022/12/22 08:51:31;;;;;;;26.37;21.17;;;7.60;1.00;;;;;;6247340;28;20236;-55
2022/12/22 08:54:34;;;;;;;27.27;21.57;;;7.60;1.00;;;;;;6253164;28;20629;-53
2022/12/22 08:57:39;;;;;;;28.50;21.07;;;7.60;1.00;;;;;;6257725;28;20241;-55
2022/12/22 09:00:42;;;;;;;28.80;22.37;;;7.60;1.00;;;;;;6255350;28;20316;-55
2022/12/22 09:03:49;;;;;;;27.93;22.47;;;7.70;1.00;;;;;;6253206;28;20237;-56
2022/12/22 09:06:53;;;;;;;23.43;20.80;;;7.70;1.00;;;;;;6254305;28;20325;-55
2022/12/22 09:09:57;;;;;;;28.20;21.80;;;7.70;1.00;;;;;;6253017;28;20230;-55
2022/12/22 09:13:01;;;;;;;24.87;20.20;;;7.60;1.00;;;;;;6255058;28;20225;-54
2022/12/22 09:16:05;;;;;;;26.90;22.57;;;7.70;1.00;;;;;;6254104;28;20233;-55
2022/12/22 09:19:09;;;;;;;27.87;22.50;;;7.70;1.00;;;;;;6252947;28;20241;-55
2022/12/22 09:22:11;;;;;;;25.87;21.20;;;7.80;1.00;;;;;;6259973;28;20238;-54
2022/12/22 09:25:17;;;;;;;27.53;20.87;;;7.80;1.00;;;;;;6254089;28;20313;-55
2022/12/22 09:28:21;;;;;;;23.20;20.70;;;7.80;1.00;;;;;;6254608;28;20801;-53
2022/12/22 09:31:25;;;;;;;25.07;20.23;;;7.90;1.00;;;;;;6254716;28;20301;-55
2022/12/22 09:34:28;;;;;;;21.57;19.23;;;7.90;1.00;;;;;;6248546;28;20325;-56
2022/12/22 09:37:31;;;;;;;22.67;18.37;;;8.00;1.00;;;;;;6254582;28;20234;-57
2022/12/22 09:40:35;;;;;;;20.90;18.60;;;8.00;1.00;;;;;;6249160;28;20238;-54
2022/12/22 09:43:39;;;;;;;22.97;19.60;;;8.00;1.00;;;;;;6254565;28;20647;-55
2022/12/22 09:46:42;;;;;;;22.10;19.70;;;8.10;1.00;;;;;;6258452;28;20376;-54
2022/12/22 09:49:45;;;;;;;21.33;19.03;;;8.00;1.00;;;;;;6259091;28;20237;-55
2022/12/22 09:52:52;;;;;;;20.57;18.37;;;8.30;1.00;;;;;;6258200;28;20413;-54
2022/12/22 09:55:55;;;;;;;21.73;18.50;;;8.00;1.00;;;;;;6247553;28;20851;-53
2022/12/22 09:59:00;;;;;;;20.87;18.67;;;8.10;1.00;;;;;;6257185;28;20238;-54
2022/12/22 10:02:13;;;;;;;19.70;17.67;;;8.10;1.00;;;;;;6256260;28;20237;-54
2022/12/22 10:05:27;;;;;;;19.77;17.70;;;8.10;1.00;;;;;;6256885;28;20233;-55
2022/12/22 10:08:35;;;;;;;18.90;16.93;;;8.10;1.00;;;;;;6258175;28;20400;-55
2022/12/22 10:11:38;;;;;;;20.33;17.83;;;8.10;1.00;;;;;;6257507;28;20615;-54
2022/12/22 10:14:44;;;;;;;18.87;16.87;;;8.10;1.00;;;;;;6263274;28;20694;-54
2022/12/22 10:17:50;;;;;;;18.87;16.97;;;8.10;1.00;;;;;;6259074;28;20328;-55
2022/12/22 10:21:09;;;;;;;19.33;16.73;;;8.20;1.00;;;;;;6258842;28;20621;-56
2022/12/22 10:24:29;;;;;;;20.23;16.47;;;8.20;1.00;;;;;;6264681;28;20226;-55
2022/12/22 10:27:34;;;;;;;18.77;16.00;;;8.10;1.00;;;;;;6252067;28;20245;-55
2022/12/22 10:30:46;;;;;;;19.87;16.20;;;8.10;1.00;;;;;;6259684;28;20525;-56
2022/12/22 10:33:51;;;;;;;18.57;16.77;;;8.20;1.00;;;;;;6258904;28;20329;-55
2022/12/22 10:36:59;;;;;;;17.53;15.83;;;8.20;1.00;;;;;;6248575;28;20230;-54
2022/12/22 10:40:16;;;;;;;16.97;15.27;;;8.20;1.00;;;;;;6258349;28;20237;-54
2022/12/22 10:43:22;;;;;;;19.40;15.83;;;8.30;1.00;;;;;;6255178;28;20501;-56
2022/12/22 10:46:35;;;;;;;16.77;15.03;;;8.30;1.00;;;;;;6255312;28;20246;-54
2022/12/22 10:49:40;;;;;;;17.03;15.07;;;8.30;1.00;;;;;;6257269;28;20243;-54
2022/12/22 10:52:51;;;;;;;17.67;15.67;;;8.30;1.00;;;;;;6229486;28;20754;-54
2022/12/22 10:56:05;;;;;;;16.37;14.70;;;8.30;1.00;;;;;;6233403;28;20505;-55
2022/12/22 10:59:19;;;;;;;16.77;14.97;;;8.30;1.00;;;;;;6247075;28;20481;-56
2022/12/22 11:02:36;;;;;;;17.33;15.37;;;8.30;1.00;;;;;;6255075;28;20319;-55
2022/12/22 11:05:41;;;;;;;18.60;16.67;;;8.30;1.00;;;;;;6251196;28;20231;-55
2022/12/22 11:08:44;;;;;;;19.97;15.90;;;8.40;1.00;;;;;;6252678;28;20327;-54
2022/12/22 11:11:59;;;;;;;19.70;17.60;;;8.40;1.00;;;;;;6253216;28;20680;-54
2022/12/22 11:15:11;;;;;;;19.00;17.03;;;8.40;1.00;;;;;;6254092;28;20222;-56
2022/12/22 11:18:36;;;;;;;18.27;16.43;;;8.50;1.00;;;;;;6252100;28;20241;-58
2022/12/22 11:21:46;;;;;;;18.10;16.13;;;8.50;1.00;;;;;;6251144;28;20234;-56
2022/12/22 11:25:01;;;;;;;23.47;15.77;;;8.50;1.00;;;;;;6256144;28;20238;-56
2022/12/22 11:28:19;;;;;;;16.87;14.40;;;8.50;1.00;;;;;;6262005;28;20707;-54
2022/12/22 11:31:37;;;;;;;16.70;15.03;;;8.60;1.00;;;;;;6245136;28;20622;-55
2022/12/22 11:34:58;;;;;;;16.10;14.60;;;8.70;1.00;;;;;;6250198;28;20888;-54
2022/12/22 11:38:10;;;;;;;16.23;14.80;;;8.70;1.00;;;;;;6256185;28;20242;-56
2022/12/22 11:41:29;;;;;;;14.97;13.60;;;8.70;1.00;;;;;;6251128;28;20750;-56
2022/12/22 11:44:41;;;;;;;16.37;14.73;;;8.80;1.00;;;;;;6256366;28;20609;-54
2022/12/22 11:47:56;;;;;;;15.27;13.30;;;8.80;1.00;;;;;;6254559;28;20246;-55
2022/12/22 11:51:08;;;;;;;14.97;13.50;;;8.80;1.00;;;;;;6251648;28;20225;-54
2022/12/22 11:54:51;;;;;;;13.53;12.23;;;8.80;1.00;;;;;;6256345;28;20237;-55
2022/12/22 11:58:03;;;;;;;15.17;13.77;;;8.80;1.00;;;;;;6250495;28;20480;-54
2022/12/22 12:01:20;;;;;;;14.13;12.77;;;8.80;1.00;;;;;;6256552;28;20234;-54
2022/12/22 12:05:00;;;;;;;15.70;14.33;;;8.80;1.00;;;;;;6250743;28;20519;-55
2022/12/22 12:08:16;;;;;;;14.33;13.10;;;8.90;1.00;;;;;;6248696;28;20246;-55
2022/12/22 12:11:27;;;;;;;15.17;13.87;;;8.90;1.00;;;;;;6255647;28;20245;-55
2022/12/22 12:14:38;;;;;;;15.77;14.27;;;8.90;1.00;;;;;;6256890;28;20253;-56
2022/12/22 12:17:58;;;;;;;14.87;13.67;;;8.90;1.00;;;;;;6249461;28;20238;-58
2022/12/22 12:21:16;;;;;;;14.40;13.20;;;9.00;1.00;;;;;;6254969;28;20249;-55
2022/12/22 12:24:28;;;;;;;14.67;13.37;;;9.00;1.00;;;;;;6254858;28;20234;-55
2022/12/22 12:27:55;;;;;;;14.47;13.20;;;9.00;1.00;;;;;;6253840;28;20245;-55
2022/12/22 12:31:00;;;;;;;14.97;13.57;;;9.10;1.00;;;;;;6228639;28;20231;-56
2022/12/22 12:34:04;;;;;;;13.43;12.20;;;9.00;1.00;;;;;;6230396;28;20691;-55
2022/12/22 12:37:14;;;;;;;13.50;12.40;;;9.00;1.00;;;;;;6229586;28;20238;-54
2022/12/22 12:40:34;;;;;;;14.17;12.87;;;9.00;1.00;;;;;;6229731;28;20234;-57
2022/12/22 12:43:38;;;;;;;15.00;13.70;;;9.00;1.00;;;;;;6230821;28;20269;-55
2022/12/22 12:47:07;;;;;;;14.67;13.43;;;9.00;1.00;;;;;;6228651;28;20249;-55
2022/12/22 12:50:34;;;;;;;14.53;13.43;;;9.00;1.00;;;;;;6231074;28;20230;-55
2022/12/22 12:54:12;;;;;;;15.70;14.30;;;9.00;1.00;;;;;;6223934;28;20243;-55
2022/12/22 12:57:28;;;;;;;14.93;13.67;;;9.00;1.00;;;;;;6225787;28;20234;-55
2022/12/22 13:00:45;;;;;;;15.53;14.03;;;9.00;1.00;;;;;;6223645;28;20265;-57
2022/12/22 13:03:54;;;;;;;15.33;13.93;;;9.00;1.00;;;;;;6240092;28;20272;-55
2022/12/22 13:07:07;;;;;;;15.20;13.80;;;9.00;1.00;;;;;;6254825;28;20325;-54
2022/12/22 13:10:19;;;;;;;14.90;13.70;;;9.00;1.00;;;;;;6245363;28;20723;-53
2022/12/22 13:13:52;;;;;;;14.70;13.50;;;9.00;1.00;;;;;;6255993;28;20325;-54
2022/12/22 13:17:32;;;;;;;14.03;12.93;;;9.00;1.00;;;;;;6252952;28;20687;-56
2022/12/22 13:20:37;;;;;;;14.50;13.23;;;9.10;1.00;;;;;;6252018;28;20252;-55
2022/12/22 13:23:44;;;;;;;14.60;13.37;;;9.10;1.00;;;;;;6259286;28;20241;-55
2022/12/22 13:27:11;;;;;;;14.27;13.17;;;9.10;1.00;;;;;;6260298;28;20709;-55
2022/12/22 13:30:19;;;;;;;13.37;12.27;;;9.00;1.00;;;;;;6260217;28;20722;-54
2022/12/22 13:33:25;;;;;;;15.23;14.03;;;9.00;1.00;;;;;;6260508;28;20233;-56
2022/12/22 13:36:28;;;;;;;15.20;13.63;;;9.10;1.00;;;;;;6255766;28;20241;-55
2022/12/22 13:39:31;;;;;;;14.60;13.37;;;9.00;1.00;;;;;;6249030;28;20614;-54
2022/12/22 13:42:36;;;;;;;15.03;13.63;;;9.00;1.00;;;;;;6259829;28;20746;-55
2022/12/22 13:45:42;;;;;;;14.30;13.00;;;9.00;1.00;;;;;;6259295;28;20325;-55
2022/12/22 13:48:47;;;;;;;15.50;14.03;;;9.00;1.00;;;;;;6259950;28;20241;-54
2022/12/22 13:51:51;;;;;;;14.40;13.13;;;9.00;1.00;;;;;;6260541;28;20234;-56
2022/12/22 13:54:54;;;;;;;14.47;13.20;;;9.00;1.00;;;;;;6259789;28;20237;-55
2022/12/22 13:58:04;;;;;;;14.67;13.47;;;9.10;1.00;;;;;;6259600;28;20234;-55
2022/12/22 14:01:17;;;;;;;13.83;12.60;;;9.10;1.00;;;;;;6259434;28;20249;-55
2022/12/22 14:04:20;;;;;;;13.50;12.40;;;9.10;1.00;;;;;;6256212;28;20237;-55
2022/12/22 14:07:24;;;;;;;13.30;12.20;;;9.10;1.00;;;;;;6256094;28;20245;-55
2022/12/22 14:10:30;;;;;;;13.03;12.07;;;9.10;1.00;;;;;;6258753;28;20341;-54
2022/12/22 14:13:33;;;;;;;12.40;11.50;;;9.10;1.00;;;;;;6254165;28;20320;-55
2022/12/22 14:16:42;;;;;;;12.67;11.67;;;9.10;1.00;;;;;;6260299;28;20241;-55
2022/12/22 14:19:48;;;;;;;13.03;11.93;;;9.10;1.00;;;;;;6259329;28;20260;-55
2022/12/22 14:22:54;;;;;;;11.70;10.87;;;9.10;1.00;;;;;;6254156;28;20269;-55
2022/12/22 14:26:00;;;;;;;12.37;11.27;;;9.10;1.00;;;;;;6258889;28;20265;-55
2022/12/22 14:29:09;;;;;;;11.80;10.87;;;9.10;1.00;;;;;;6233105;28;20242;-55
2022/12/22 14:32:37;;;;;;;11.63;10.67;;;9.10;1.00;;;;;;6231650;28;20633;-55
2022/12/22 14:35:40;;;;;;;12.27;11.17;;;9.20;1.00;;;;;;6229190;28;20237;-55
2022/12/22 14:38:46;;;;;;;11.90;10.90;;;9.10;1.00;;;;;;6234634;28;20238;-54
2022/12/22 14:41:51;;;;;;;11.37;10.47;;;9.10;1.00;;;;;;6230264;28;20235;-55
2022/12/22 14:44:55;;;;;;;10.20;9.40;;;9.10;1.00;;;;;;6233933;28;20600;-54
2022/12/22 14:47:59;;;;;;;9.90;9.20;;;9.20;1.00;;;;;;6232887;28;20238;-56
2022/12/22 14:51:03;;;;;;;10.13;9.50;;;9.10;1.00;;;;;;6227447;28;20245;-55
2022/12/22 14:54:07;;;;;;;10.17;9.40;;;9.10;1.00;;;;;;6233115;28;20237;-55
2022/12/22 14:57:11;;;;;;;11.07;10.17;;;9.10;1.00;;;;;;6233149;28;20235;-56
2022/12/22 15:00:32;;;;;;;10.23;9.53;;;9.10;1.00;;;;;;6233407;28;20289;-56
2022/12/22 15:03:38;;;;;;;9.93;9.33;;;9.10;1.00;;;;;;6229039;28;20394;-55
2022/12/22 15:06:44;;;;;;;9.40;8.80;;;9.10;1.00;;;;;;6226319;28;20242;-55
2022/12/22 15:09:47;;;;;;;9.17;8.47;;;9.10;1.00;;;;;;6232996;28;20611;-56
2022/12/22 15:13:16;;;;;;;9.03;8.53;;;9.00;1.00;;;;;;6260121;28;20257;-56
2022/12/22 15:16:21;;;;;;;8.40;7.83;;;9.00;1.00;;;;;;6241491;28;20239;-56
2022/12/22 15:19:29;;;;;;;8.37;7.87;;;9.00;1.00;;;;;;6233533;28;20246;-55
2022/12/22 15:22:32;;;;;;;8.47;7.97;;;9.00;1.00;;;;;;6239920;28;20774;-54
2022/12/22 15:25:35;;;;;;;7.80;7.40;;;9.00;1.00;;;;;;6230512;28;20242;-56
2022/12/22 15:28:39;;;;;;;7.93;7.43;;;9.00;1.00;;;;;;6238183;28;20617;-56
2022/12/22 15:31:43;;;;;;;8.73;8.23;;;9.00;1.00;;;;;;6226610;28;20242;-54
2022/12/22 15:34:47;;;;;;;9.33;8.73;;;9.00;1.00;;;;;;6227631;28;20238;-55
2022/12/22 15:37:50;;;;;;;9.30;8.70;;;9.00;1.00;;;;;;6239713;28;20657;-56
2022/12/22 15:40:53;;;;;;;10.63;9.93;;;9.00;1.00;;;;;;6233496;28;20369;-56
2022/12/22 15:43:56;;;;;;;10.17;9.43;;;9.00;1.00;;;;;;6233497;28;20381;-56
2022/12/22 15:47:01;;;;;;;10.97;10.17;;;9.00;1.00;;;;;;6227007;28;20245;-56
2022/12/22 15:50:07;;;;;;;10.83;9.97;;;9.00;1.00;;;;;;6258517;28;20241;-56
2022/12/22 15:53:15;;;;;;;11.70;10.80;;;9.00;1.00;;;;;;6260178;28;20363;-55
2022/12/22 15:56:22;;;;;;;12.27;11.27;;;9.00;1.00;;;;;;6237016;28;20622;-54
2022/12/22 15:59:27;;;;;;;12.13;11.27;;;9.00;1.00;;;;;;6231938;28;20246;-55
2022/12/22 16:02:30;;;;;;;11.70;10.80;;;9.00;1.00;;;;;;6230517;28;20747;-56
2022/12/22 16:05:34;;;;;;;12.77;11.77;;;9.00;1.00;;;;;;6218069;28;20242;-55
2022/12/22 16:08:38;;;;;;;13.60;12.33;;;9.00;1.00;;;;;;6231741;28;20277;-56
2022/12/22 16:11:41;;;;;;;13.37;12.17;;;9.00;1.00;;;;;;6232496;28;20249;-55
2022/12/22 16:14:47;;;;;;;13.63;12.43;;;9.00;1.00;;;;;;6231402;28;20238;-57
2022/12/22 16:17:52;;;;;;;14.00;12.67;;;9.00;1.00;;;;;;6230532;28;20647;-55
2022/12/22 16:21:00;;;;;;;15.03;13.53;;;9.00;1.00;;;;;;6228890;28;20235;-57
2022/12/22 16:24:04;;;;;;;15.83;14.23;;;9.00;1.00;;;;;;6235540;28;20256;-56
2022/12/22 16:27:09;;;;;;;15.40;13.93;;;9.00;1.00;;;;;;6233053;28;20234;-59
2022/12/22 16:30:17;;;;;;;15.20;13.80;;;9.00;1.00;;;;;;6230458;28;20242;-55
2022/12/22 16:33:20;;;;;;;16.20;14.63;;;9.00;1.00;;;;;;6231684;28;20634;-57
2022/12/22 16:36:24;;;;;;;15.90;14.40;;;8.90;1.00;;;;;;6230291;28;20242;-56
2022/12/22 16:39:27;;;;;;;14.57;13.17;;;8.90;1.00;;;;;;6223206;28;20261;-56
2022/12/22 16:42:31;;;;;;;14.13;12.83;;;8.90;1.00;;;;;;6230016;28;20246;-56
2022/12/22 16:45:52;;;;;;;15.63;14.23;;;8.80;1.00;;;;;;6226767;28;20651;-56
2022/12/22 16:48:59;;;;;;;17.33;15.70;;;8.80;1.00;;;;;;6231132;28;20337;-56
2022/12/22 16:52:03;;;;;;;17.53;15.83;;;8.80;1.00;;;;;;6231013;28;20242;-56
2022/12/22 16:55:14;;;;;;;17.00;15.40;;;8.70;1.00;;;;;;6226193;28;20440;-56
2022/12/22 16:58:17;;;;;;;16.33;14.83;;;8.60;1.00;;;;;;6229912;28;21343;-56
2022/12/22 17:01:29;;;;;;;18.27;16.47;;;8.50;1.00;;;;;;6230039;28;20258;-55
2022/12/22 17:04:33;;;;;;;17.87;16.13;;;8.50;1.00;;;;;;6221461;28;20353;-55
2022/12/22 17:07:37;;;;;;;18.73;16.87;;;8.40;1.00;;;;;;6222436;28;20639;-56
2022/12/22 17:10:40;;;;;;;19.30;17.17;;;8.40;1.00;;;;;;6229852;28;20778;-56
2022/12/22 17:13:43;;;;;;;19.33;17.43;;;8.40;1.00;;;;;;6226849;28;20242;-56
2022/12/22 17:16:46;;;;;;;18.60;16.60;;;8.40;1.00;;;;;;6230546;28;20746;-56
2022/12/22 17:19:50;;;;;;;20.97;17.40;;;8.30;1.00;;;;;;6229889;28;20732;-55
2022/12/22 17:23:00;;;;;;;20.47;18.37;;;8.40;1.00;;;;;;6222873;28;20276;-55
2022/12/22 17:26:07;;;;;;;20.07;17.97;;;8.40;1.00;;;;;;6230085;28;20270;-56
2022/12/22 17:29:15;;;;;;;20.50;18.37;;;8.40;1.00;;;;;;6228912;28;20489;-56
2022/12/22 17:32:20;;;;;;;20.53;18.33;;;8.40;1.00;;;;;;6228005;28;20238;-55
2022/12/22 17:35:27;;;;;;;21.13;18.93;;;8.40;1.00;;;;;;6225763;28;20417;-55
2022/12/22 17:38:31;;;;;;;20.97;18.10;;;8.40;1.00;;;;;;6225609;28;20246;-55
2022/12/22 17:41:34;;;;;;;19.97;18.00;;;8.40;1.00;;;;;;6230397;28;20249;-55
2022/12/22 17:44:38;;;;;;;19.93;17.83;;;8.40;1.00;;;;;;6226734;28;20235;-56
2022/12/22 17:47:41;;;;;;;20.53;17.83;;;8.40;1.00;;;;;;6229293;28;20243;-56
2022/12/22 17:50:48;;;;;;;20.00;17.87;;;8.40;1.00;;;;;;6229952;28;20238;-55
2022/12/22 17:53:53;;;;;;;21.80;18.47;;;8.40;1.00;;;;;;6227994;28;20520;-55
2022/12/22 17:57:00;;;;;;;23.03;19.20;;;8.30;1.00;;;;;;6226953;28;20667;-55
2022/12/22 18:00:07;;;;;;;20.10;18.10;;;8.30;1.00;;;;;;6229205;28;20659;-55
2022/12/22 18:03:18;;;;;;;20.67;18.47;;;8.30;1.00;;;;;;6227872;28;20238;-55
2022/12/22 18:06:24;;;;;;;22.43;18.80;;;8.30;1.00;;;;;;6228053;28;20348;-55
2022/12/22 18:09:28;;;;;;;23.27;19.20;;;8.30;1.00;;;;;;6233394;28;20385;-56
2022/12/22 18:12:31;;;;;;;21.47;18.60;;;8.30;1.00;;;;;;6234658;28;20467;-55
2022/12/22 18:15:34;;;;;;;22.30;18.30;;;8.20;1.00;;;;;;6229159;28;20234;-55
2022/12/22 18:18:37;;;;;;;23.03;18.97;;;8.20;1.00;;;;;;6231596;28;20247;-56
2022/12/22 18:21:40;;;;;;;22.53;18.87;;;8.10;1.00;;;;;;6234412;28;20333;-56
2022/12/22 18:24:44;;;;;;;21.53;18.00;;;8.10;1.00;;;;;;6233495;28;20243;-55
2022/12/22 18:27:48;;;;;;;23.03;18.93;;;8.00;1.00;;;;;;6227726;28;20253;-56
2022/12/22 18:30:51;;;;;;;22.07;17.93;;;8.00;1.00;;;;;;6233031;28;20485;-56
2022/12/22 18:33:54;;;;;;;22.63;18.93;;;7.90;1.00;;;;;;6231073;28;20231;-56
2022/12/22 18:36:57;;;;;;;19.07;17.17;;;7.90;1.00;;;;;;6227653;28;20227;-56
2022/12/22 18:40:02;;;;;;;19.80;17.07;;;7.90;1.00;;;;;;6224633;28;20894;-56
2022/12/22 18:43:11;;;;;;;21.27;18.50;;;7.90;1.00;;;;;;6233751;28;20650;-55
2022/12/22 18:46:14;;;;;;;23.70;19.03;;;7.90;1.00;;;;;;6233961;28;20245;-55
2022/12/22 18:49:17;;;;;;;21.63;18.30;;;7.90;1.00;;;;;;6228825;28;20313;-55
2022/12/22 18:52:23;;;;;;;22.70;19.00;;;7.90;1.00;;;;;;6232793;28;20247;-54
2022/12/22 18:55:29;;;;;;;24.10;18.23;;;7.80;1.00;;;;;;6232964;28;20877;-55
2022/12/22 18:58:32;;;;;;;20.13;16.93;;;7.60;1.00;;;;;;6231244;28;20334;-55
2022/12/22 19:01:37;;;;;;;22.80;18.27;;;7.70;1.00;;;;;;6233155;28;20227;-56
2022/12/22 19:04:40;;;;;;;21.60;17.80;;;7.70;1.00;;;;;;6228531;28;20747;-55
2022/12/22 19:07:44;;;;;;;20.07;16.87;;;7.60;1.00;;;;;;6224817;28;20234;-56
2022/12/22 19:10:51;;;;;;;20.27;17.10;;;7.60;1.00;;;;;;6232815;28;20242;-55
2022/12/22 19:13:54;;;;;;;19.80;16.77;;;7.50;1.00;;;;;;6227420;28;20219;-55
2022/12/22 19:16:57;;;;;;;21.27;17.73;;;7.50;1.00;;;;;;6229820;28;20235;-55
2022/12/22 19:20:00;;;;;;;22.87;17.70;;;7.50;1.00;;;;;;6245104;28;20226;-53
2022/12/22 19:23:03;;;;;;;25.33;17.53;;;7.50;1.00;;;;;;6262082;28;20226;-56
2022/12/22 19:26:17;;;;;;;24.23;17.93;;;7.50;1.00;;;;;;6258368;28;20691;-55
2022/12/22 19:29:20;;;;;;;24.43;17.97;;;7.40;1.00;;;;;;6256536;28;20241;-54
2022/12/22 19:32:25;;;;;;;25.57;18.60;;;7.40;1.00;;;;;;6259644;28;20497;-54
2022/12/22 19:35:30;;;;;;;23.70;18.63;;;7.50;1.00;;;;;;6256650;28;20301;-55
2022/12/22 19:38:34;;;;;;;26.43;19.83;;;7.30;1.00;;;;;;6265486;28;20250;-55
2022/12/22 19:41:41;;;;;;;24.77;19.60;;;7.30;1.00;;;;;;6232428;28;20242;-55
2022/12/22 19:44:45;;;;;;;25.83;19.50;;;7.30;1.00;;;;;;6232802;28;20321;-56
2022/12/22 19:47:48;;;;;;;28.77;19.87;;;7.30;1.00;;;;;;6228720;28;20235;-56
2022/12/22 19:50:52;;;;;;;24.87;19.03;;;7.30;1.00;;;;;;6232339;28;20648;-55
2022/12/22 19:53:55;;;;;;;26.97;20.27;;;7.30;1.00;;;;;;6232200;28;20262;-55